Santa Venetia, California
Current Conditions -  °F | °C
As of 5:15 PM on Sunday 23 Nov 2014 (Local Time) from KDVO Reporting Station
Clear Clear  
Wind Chill: 57°   Ceiling: Unl
Heat Index: 57°   Visibility: NA
Dew Point: 43°   Wind: 3mph
Humidity: 59%   Direction: 300°WNW
Pressure: 30.28"   Gusts: NA
Location:  38.0232°N, 122.547°W
Report Text: KDVO 240115Z AUTO 30003KT CLR 14/06 A3028 RMK AO2
Loading
Personal Weather Stations






























Interactive Weather Map New forecast layout! Learn more

10-Day Weather Forecast

Advertisements
Track Severe Weather on mobile